KellyUSA Airport, TX

1:40 PM CDT on March 26, 2017 (GMT -0500)
Kelly Air Force Base

Weather History for KSKF - March, 2013

Change the Weather History Date:

Saturday, March 9, 2013

  Actual Average Record
Temperature  
Mean Temperature 70 °F -  
Max Temperature 79 °F 69 °F 86 °F (2009)
Min Temperature 62 °F 50 °F 33 °F (1998)
Cooling Degree Days 6    
Growing Degree Days 20 (Base 50)    
Moisture  
Dew Point 64 °F    
Average Humidity 90    
Maximum Humidity 100    
Minimum Humidity 61    
Precipitation  
Precipitation 0.04 in - - ()
Sea Level Pressure  
Sea Level Pressure 29.82 in    
Wind  
Wind Speed 11 mph (SE)    
Max Wind Speed 24 mph    
Max Gust Speed 34 mph    
Visibility 8 miles    
Events Rain    
Averages and records for this station are not official NWS values.
T = Trace of Precipitation, MM = Missing Value Source: NWS Daily Summary

Daily Weather History Graph

Daily Weather History Graph

Search for Another Location

Airport or City:

Trip Planner

Search our weather history database for the weather conditions in past years. The results will help you decide how hot, cold, wet, or windy it might be!

Date:

Astronomy

Mar. 09, 2013 Rise Set
Actual Time 6:50 AM CST 6:39 PM CST
Civil Twilight 6:26 AM CST 7:02 PM CST
Nautical Twilight 5:59 AM CST 7:30 PM CST
Astronomical Twilight 5:31 AM CST 7:58 PM CST
Moon 5:07 AM CST (3/9) 4:48 PM CST (3/9)
Length of Visible Light 12h 36m
Length of Day
11h 48m
Waning Crescent, 5% of the Moon is Illuminated
Mar 9
Waning Crescent
Mar 11
New
Mar 19
First Quarter
Mar 27
Full
Apr 2
Last Quarter

Hourly Weather History & Observations

Time (CST) Temp. Dew Point Humidity Pressure Visibility Wind Dir Wind Speed Gust Speed Precip Events Conditions
12:58 AM 64.2 °F 60.1 °F 86% 29.97 in 10.0 mi ESE 9.2 mph - N/A   Overcast
1:58 AM 64.2 °F 60.3 °F 87% 29.94 in 10.0 mi ESE 10.4 mph - N/A   Overcast
2:58 AM 63.9 °F 60.6 °F 89% 29.91 in 8.0 mi ESE 10.4 mph - N/A   Overcast
3:28 AM 62.6 °F 60.8 °F 94% 29.90 in 5.0 mi ESE 11.5 mph - N/A   Overcast
3:33 AM 62.6 °F 60.8 °F 94% 29.90 in 5.0 mi ESE 10.4 mph - N/A   Overcast
3:43 AM 62.6 °F 60.8 °F 94% 29.90 in 7.0 mi ESE 8.1 mph - N/A   Overcast
3:53 AM 62.6 °F 60.8 °F 94% 29.89 in 8.0 mi ESE 9.2 mph - N/A   Overcast
3:58 AM 63.0 °F 61.5 °F 95% 29.88 in 8.0 mi ESE 8.1 mph - N/A   Overcast
4:03 AM 62.6 °F 60.8 °F 94% 29.89 in 9.0 mi ESE 6.9 mph - N/A   Overcast
4:08 AM 62.6 °F 60.8 °F 94% 29.89 in 9.0 mi ESE 8.1 mph - N/A   Overcast
4:53 AM 62.6 °F 62.6 °F 100% 29.89 in 4.0 mi ESE 8.1 mph - N/A   Overcast
4:58 AM 63.1 °F 62.1 °F 96% 29.87 in 4.0 mi ESE 8.1 mph - N/A   Overcast
5:23 AM 62.6 °F 62.6 °F 100% 29.88 in 4.0 mi ESE 8.1 mph - N/A   Overcast
5:58 AM 63.7 °F 62.8 °F 97% 29.88 in 5.0 mi SE 10.4 mph - N/A   Overcast
6:02 AM 64.4 °F 62.6 °F 94% 29.89 in 4.0 mi SE 8.1 mph - N/A Rain Light Rain
6:18 AM 64.4 °F 62.6 °F 94% 29.89 in 4.0 mi SE 8.1 mph - N/A   Overcast
6:58 AM 64.4 °F 63.9 °F 98% 29.88 in 3.0 mi ESE 6.9 mph - 0.02 in   Overcast
6:59 AM 64.4 °F 64.4 °F 100% 29.89 in 3.0 mi ESE 6.9 mph - N/A Rain Light Rain
7:00 AM 64.4 °F 64.4 °F 100% 29.89 in 3.0 mi ESE 6.9 mph - N/A   Overcast
7:05 AM 64.4 °F 64.4 °F 100% 29.89 in 2.5 mi SE 6.9 mph - N/A   Overcast
7:07 AM 64.4 °F 64.4 °F 100% 29.89 in 2.5 mi SE 9.2 mph - N/A Rain Light Rain
7:08 AM 64.4 °F 64.4 °F 100% 29.89 in 3.0 mi SE 8.1 mph - N/A   Overcast
7:14 AM 64.4 °F 64.4 °F 100% 29.90 in 3.0 mi SE 9.2 mph - N/A Rain Light Rain
7:24 AM 64.4 °F 64.4 °F 100% 29.90 in 3.0 mi SE 6.9 mph - N/A   Overcast
7:58 AM 64.6 °F 64.2 °F 99% 29.89 in 4.0 mi SE 6.9 mph - 0.01 in   Overcast
8:13 AM 64.4 °F 64.4 °F 100% 29.90 in 4.0 mi SE 10.4 mph - N/A   Overcast
8:18 AM 64.4 °F 64.4 °F 100% 29.90 in 4.0 mi ESE 8.1 mph - N/A   Overcast
8:58 AM 65.1 °F 64.8 °F 99% 29.88 in 10.0 mi ESE 10.4 mph - 0.01 in   Overcast
9:03 AM 64.4 °F 64.4 °F 100% 29.89 in 10.0 mi ESE 10.4 mph - N/A   Overcast
9:08 AM 64.4 °F 64.4 °F 100% 29.89 in 9.0 mi SE 10.4 mph - N/A   Overcast
9:13 AM 64.4 °F 64.4 °F 100% 29.89 in 9.0 mi SSE 8.1 mph - N/A   Overcast
9:23 AM 66.2 °F 64.4 °F 94% 29.89 in 10.0 mi SE 9.2 mph - N/A   Overcast
9:28 AM 66.2 °F 64.4 °F 94% 29.89 in 10.0 mi SE 10.4 mph - N/A   Overcast
9:33 AM 66.2 °F 64.4 °F 94% 29.89 in 10.0 mi SE 10.4 mph - N/A   Overcast
9:43 AM 66.2 °F 66.2 °F 100% 29.88 in 10.0 mi SE 10.4 mph - N/A   Overcast
9:48 AM 66.2 °F 66.2 °F 100% 29.88 in 10.0 mi SE 9.2 mph - N/A   Overcast
9:53 AM 66.2 °F 66.2 °F 100% 29.88 in 10.0 mi SE 11.5 mph - N/A   Overcast
9:58 AM 66.2 °F 66.2 °F 100% 29.87 in 10.0 mi SE 9.2 mph - N/A   Overcast
10:03 AM 66.2 °F 66.2 °F 100% 29.87 in 10.0 mi SE 11.5 mph - N/A   Overcast
10:58 AM 68.0 °F 66.4 °F 95% 29.84 in 10.0 mi SE 15.0 mph - N/A   Overcast
11:08 AM 68.0 °F 66.2 °F 94% 29.85 in 10.0 mi SE 12.7 mph - N/A   Overcast
11:58 AM 69.3 °F 65.7 °F 88% 29.83 in 10.0 mi SE 11.5 mph - N/A   Overcast
12:58 PM 71.6 °F 66.2 °F 83% 29.78 in 10.0 mi SE 13.8 mph - N/A   Mostly Cloudy
1:23 PM 75.2 °F 66.2 °F 73% 29.76 in 10.0 mi SE 17.3 mph 23.0 mph N/A   Mostly Cloudy
1:33 PM 75.2 °F 66.2 °F 73% 29.76 in 10.0 mi SE 16.1 mph 23.0 mph N/A   Mostly Cloudy
1:58 PM 75.2 °F 66.2 °F 73% 29.75 in 10.0 mi SSE 16.1 mph 21.9 mph N/A   Overcast
2:13 PM 77.0 °F 64.4 °F 65% 29.74 in 10.0 mi SE 12.7 mph - N/A   Overcast
2:58 PM 79.2 °F 64.8 °F 61% 29.69 in 10.0 mi SE 17.3 mph 24.2 mph N/A   Mostly Cloudy
3:58 PM 78.1 °F 64.6 °F 63% 29.67 in 10.0 mi SE 17.3 mph 25.3 mph N/A   Overcast
4:58 PM 77.0 °F 64.9 °F 66% 29.67 in 10.0 mi ESE 15.0 mph - N/A   Mostly Cloudy
5:28 PM 75.2 °F 64.4 °F 69% 29.68 in 10.0 mi ESE 20.7 mph 26.5 mph N/A   Mostly Cloudy
5:58 PM 73.2 °F 64.6 °F 74% 29.67 in 10.0 mi ESE 20.7 mph 27.6 mph N/A   Mostly Cloudy
6:08 PM 71.6 °F 64.4 °F 78% 29.69 in 10.0 mi ESE 16.1 mph 25.3 mph N/A   Scattered Clouds
6:18 PM 71.6 °F 64.4 °F 78% 29.68 in 10.0 mi ESE 19.6 mph 25.3 mph N/A   Mostly Cloudy
6:58 PM 70.9 °F 64.2 °F 79% 29.67 in 10.0 mi ESE 20.7 mph - N/A   Overcast
7:58 PM 70.0 °F 63.7 °F 80% 29.66 in 10.0 mi ESE 17.3 mph 32.2 mph N/A   Overcast
8:28 PM 69.8 °F 64.4 °F 83% 29.68 in 10.0 mi SE 19.6 mph 27.6 mph N/A   Overcast
8:58 PM 69.3 °F 63.7 °F 82% 29.67 in 10.0 mi SE 17.3 mph 26.5 mph N/A   Overcast
9:58 PM 68.5 °F 63.5 °F 84% 29.61 in 10.0 mi SSE 24.2 mph 34.5 mph N/A   Overcast
10:58 PM 68.9 °F 63.7 °F 83% 29.66 in 10.0 mi SE 16.1 mph 26.5 mph N/A   Overcast
11:22 PM 69.8 °F 64.4 °F 83% 29.70 in 10.0 mi SE 12.7 mph 20.7 mph N/A   Overcast
11:58 PM 68.7 °F 63.5 °F 83% 29.64 in 10.0 mi Variable 4.6 mph - N/A   Overcast